CDT,Max TemperatureF,Mean TemperatureF,Min TemperatureF,Max Dew PointF,MeanDew PointF,Min DewpointF,Max Humidity, Mean Humidity, Min Humidity, Max Sea Level PressureIn, Mean Sea Level PressureIn, Min Sea Level PressureIn, Max VisibilityMiles, Mean VisibilityMiles, Min VisibilityMiles, Max Wind SpeedMPH, Mean Wind SpeedMPH, Max Gust SpeedMPH,PrecipitationIn, CloudCover, Events, WindDirDegrees
2013-6-1,91,80,68,75,72,66,100,80,59,29.96,29.91,29.85,10,9,1,32,8,46,1.08,5,Rain-Thunderstorm,164
2013-6-2,82,75,68,72,68,66,97,82,67,29.99,29.95,29.90,10,9,1,22,5,29,0.64,6,Rain-Thunderstorm,339
2013-6-3,86,76,65,66,64,61,93,70,47,30.01,29.95,29.90,10,10,10,13,6,16,0.00,3,,41
2013-6-4,91,77,63,73,67,62,93,72,50,29.98,29.93,29.86,10,10,10,9,3,12,0.00,1,,39
2013-6-5,92,82,71,75,73,70,100,80,59,29.94,29.88,29.80,10,8,1,20,2,25,0.23,3,Rain-Thunderstorm,37
2013-6-6,81,76,70,72,69,66,97,82,67,29.91,29.84,29.78,10,9,2,25,6,32,0.31,4,Rain-Thunderstorm,314
2013-6-7,85,76,66,68,66,63,97,74,51,29.92,29.87,29.83,10,10,9,13,5,17,T,4,Rain,358
2013-6-8,87,75,63,69,64,61,100,76,51,29.98,29.93,29.90,10,7,1,9,3,13,0.00,2,,91
2013-6-9,91,79,66,73,69,64,93,72,50,29.96,29.92,29.85,10,9,0,31,6,39,0.82,4,Fog-Rain-Thunderstorm,206
2013-6-10,92,79,66,74,69,66,100,74,47,29.99,29.97,29.94,10,10,4,13,5,24,0.00,0,,213
2013-6-11,93,83,73,76,73,71,100,75,49,30.09,30.04,29.99,10,9,5,12,4,17,0.00,1,,204
2013-6-12,93,85,76,75,73,72,94,73,52,30.09,30.04,29.99,10,10,6,13,6,18,0.00,1,,205
2013-6-13,95,85,75,77,75,73,94,73,52,30.05,29.98,29.89,10,9,5,16,6,21,0.00,2,,260
2013-6-14,91,80,69,76,69,64,85,65,44,30.00,29.96,29.91,10,10,9,14,6,17,0.00,1,,53
2013-6-15,92,79,65,69,65,62,93,67,41,30.04,30.00,29.94,10,10,10,9,2,13,0.00,0,,86
2013-6-16,90,80,70,75,72,67,93,76,59,30.04,29.99,29.96,10,10,8,22,3,30,T,2,Rain-Thunderstorm,250
2013-6-17,92,83,73,76,73,71,94,75,56,30.00,29.94,29.89,10,9,1,23,5,29,0.13,2,Rain-Thunderstorm,224
2013-6-18,84,77,70,76,72,68,100,87,74,29.99,29.95,29.88,10,7,2,26,6,33,1.15,6,Rain-Thunderstorm,244
2013-6-19,90,81,72,74,72,69,100,76,52,30.04,30.00,29.96,10,5,0,7,1,10,T,5,Fog-Rain,188
2013-6-20,93,81,69,75,72,69,100,73,46,30.12,30.06,30.01,10,7,0,7,1,9,0.00,0,Fog,116
2013-6-21,93,83,73,75,73,72,100,76,52,30.14,30.09,30.05,10,7,0,8,1,10,0.00,1,Fog,118
2013-6-22,92,82,71,75,72,68,100,77,53,30.11,30.06,29.99,10,8,2,14,2,20,0.00,0,,153
2013-6-23,91,81,71,74,72,69,100,76,52,30.08,30.04,29.99,10,7,2,10,3,14,0.00,0,,157
2013-6-24,92,83,73,75,72,70,94,73,52,30.12,30.06,30.02,10,10,4,15,5,23,0.00,0,Thunderstorm,177
2013-6-25,92,83,73,75,73,71,93,73,52,30.09,30.04,29.96,10,10,8,14,6,18,0.00,2,,183
2013-6-26,92,83,74,76,74,72,100,78,56,30.05,29.99,29.92,10,10,7,16,7,21,0.00,1,,207
2013-6-27,95,85,75,77,74,72,94,73,52,30.02,29.96,29.90,10,10,7,14,6,36,0.00,0,,242
2013-6-28,95,82,68,76,72,64,94,73,52,29.92,29.84,29.75,10,9,0,62,9,77,1.09,2,Fog-Rain-Thunderstorm,243
2013-6-29,91,83,74,73,69,66,93,69,44,29.81,29.78,29.73,10,10,10,10,3,,0.00,2,,348
2013-6-30,88,78,68,69,64,62,84,64,43,29.86,29.80,29.75,10,10,10,16,6,21,0.00,1,,348